createdAt,value
2022-12-25T00:02:19.881Z,3.71
2022-12-25T00:04:46.543Z,3.71
2022-12-25T00:07:13.198Z,3.69
2022-12-25T00:09:39.985Z,3.67
2022-12-25T00:12:06.700Z,3.64
2022-12-25T00:14:33.941Z,3.64
2022-12-25T00:17:00.605Z,3.61
2022-12-25T00:19:27.062Z,3.58
2022-12-25T00:21:54.484Z,3.58
2022-12-25T00:24:21.439Z,3.56
2022-12-25T00:26:51.509Z,3.52
2022-12-25T00:29:18.677Z,3.46
2022-12-25T00:31:45.259Z,3.42
2022-12-25T00:34:11.960Z,3.39
2022-12-25T00:36:41.935Z,3.34
2022-12-25T00:39:09.730Z,3.31
2022-12-25T00:41:54.778Z,3.27
2022-12-25T00:44:21.510Z,3.19
2022-12-25T00:46:47.990Z,3.12
2022-12-25T00:49:14.934Z,3.04
2022-12-25T00:51:42.280Z,2.97
2022-12-25T00:54:09.986Z,2.91
2022-12-25T00:56:37.243Z,2.86
2022-12-25T00:59:04.603Z,2.79
2022-12-25T01:01:31.490Z,2.72
2022-12-25T01:03:58.659Z,2.66
2022-12-25T01:06:25.539Z,2.59
2022-12-25T01:09:11.888Z,2.51
2022-12-25T01:11:38.998Z,2.45
2022-12-25T01:14:05.788Z,2.41
2022-12-25T01:16:32.464Z,2.36
2022-12-25T01:18:59.749Z,2.33
2022-12-25T01:21:26.385Z,2.28
2022-12-25T01:23:53.557Z,2.23
2022-12-25T01:26:21.949Z,2.17
2022-12-25T01:28:49.674Z,2.13
2022-12-25T01:31:18.752Z,2.07
2022-12-25T01:33:45.781Z,2.03
2022-12-25T01:36:19.243Z,1.97
2022-12-25T01:38:46.790Z,1.86
2022-12-25T01:41:15.145Z,1.80
2022-12-25T01:44:00.900Z,1.70
2022-12-25T01:46:27.772Z,1.64
2022-12-25T01:48:57.128Z,1.58
2022-12-25T01:51:32.093Z,1.53
2022-12-25T01:54:03.807Z,1.50
2022-12-25T01:56:32.151Z,1.48
2022-12-25T01:58:59.716Z,1.47
2022-12-25T02:01:26.723Z,1.43
2022-12-25T02:03:59.359Z,1.40
2022-12-25T02:06:30.563Z,1.35
2022-12-25T02:08:59.012Z,1.31
2022-12-25T02:11:44.662Z,1.28
2022-12-25T02:14:11.659Z,1.23
2022-12-25T02:16:56.559Z,1.18
2022-12-25T02:20:20.444Z,1.13
2022-12-25T02:22:55.942Z,1.07
2022-12-25T02:25:34.933Z,1.04
2022-12-25T02:28:19.774Z,1.01
2022-12-25T02:30:56.422Z,0.98
2022-12-25T02:33:55.703Z,0.97
2022-12-25T02:36:26.823Z,0.96
2022-12-25T02:39:18.641Z,0.98
2022-12-25T02:41:48.926Z,1.00
2022-12-25T02:44:41.705Z,0.99
2022-12-25T02:47:29.167Z,0.97
2022-12-25T02:50:16.165Z,0.99
2022-12-25T02:53:03.033Z,1.01
2022-12-25T02:55:55.522Z,1.02
2022-12-25T02:58:43.875Z,1.03
2022-12-25T03:01:37.078Z,1.04
2022-12-25T03:04:28.295Z,1.05
2022-12-25T03:07:01.391Z,1.07
2022-12-25T03:09:54.009Z,1.08
2022-12-25T03:12:39.032Z,1.09
2022-12-25T03:15:39.774Z,1.11
2022-12-25T03:18:15.836Z,1.16
2022-12-25T03:21:01.392Z,1.23
2022-12-25T03:23:51.584Z,1.31
2022-12-25T03:29:38.351Z,1.51
2022-12-25T03:32:31.850Z,1.59
2022-12-25T03:35:49.916Z,1.63
2022-12-25T03:38:48.252Z,1.62
2022-12-25T03:41:49.120Z,1.65
2022-12-25T03:44:52.160Z,1.70
2022-12-25T03:51:13.315Z,1.76
2022-12-25T03:54:46.891Z,1.83
2022-12-25T03:58:05.523Z,1.82
2022-12-25T04:01:06.118Z,1.84
2022-12-25T04:04:06.730Z,1.80
2022-12-25T04:07:15.995Z,1.82
2022-12-25T04:10:22.633Z,1.84
2022-12-25T04:13:18.653Z,1.88
2022-12-25T04:16:18.613Z,1.94
2022-12-25T04:19:16.567Z,1.96
2022-12-25T04:22:17.405Z,1.99
2022-12-25T04:28:57.404Z,2.09
2022-12-25T04:32:06.719Z,2.12
2022-12-25T04:35:28.006Z,2.14
2022-12-25T04:38:21.169Z,2.15
2022-12-25T04:41:03.721Z,2.11
2022-12-25T04:43:43.682Z,2.13
2022-12-25T04:46:58.258Z,2.20
2022-12-25T04:49:58.962Z,2.21
2022-12-25T04:53:07.515Z,2.17
2022-12-25T04:56:07.105Z,2.15
2022-12-25T04:59:08.870Z,2.15
2022-12-25T05:01:48.967Z,2.14
2022-12-25T05:04:30.481Z,2.17
2022-12-25T05:07:08.359Z,2.22
2022-12-25T05:09:42.560Z,2.26
2022-12-25T05:12:37.718Z,2.30
2022-12-25T05:15:21.133Z,2.33
2022-12-25T05:18:32.897Z,2.33
2022-12-25T05:21:43.294Z,2.30
2022-12-25T05:28:27.399Z,2.26
2022-12-25T05:31:08.512Z,2.30
2022-12-25T05:33:59.059Z,2.21
2022-12-25T05:36:43.420Z,2.17
2022-12-25T05:40:06.829Z,2.17
2022-12-25T05:47:04.240Z,2.19
2022-12-25T09:43:53.559Z,4.76
2022-12-25T12:00:45.628Z,5.97
2022-12-25T12:24:22.613Z,6.09
2022-12-25T12:27:05.408Z,6.11
2022-12-25T12:29:53.724Z,6.12
2022-12-25T12:32:44.875Z,6.13
2022-12-25T12:35:21.973Z,6.15
2022-12-25T12:37:53.597Z,6.16
2022-12-25T12:40:35.160Z,6.19
2022-12-25T12:43:02.745Z,6.21
2022-12-25T12:45:34.152Z,6.23
2022-12-25T12:48:01.128Z,6.25
2022-12-25T12:50:27.755Z,6.27
2022-12-25T12:52:55.646Z,6.27
2022-12-25T12:55:31.028Z,6.26
2022-12-25T12:58:03.588Z,6.25
2022-12-25T13:00:39.834Z,6.24
2022-12-25T13:03:24.947Z,6.22
2022-12-25T13:06:00.885Z,6.19
2022-12-25T13:08:34.595Z,6.15
2022-12-25T13:11:14.444Z,6.13
2022-12-25T13:13:47.097Z,6.10
2022-12-25T13:16:22.369Z,6.09
2022-12-25T13:18:54.443Z,6.06
2022-12-25T13:21:28.018Z,6.07
2022-12-25T13:24:03.446Z,6.05
2022-12-25T13:26:30.990Z,6.04
2022-12-25T13:28:57.608Z,6.02
2022-12-25T13:31:26.764Z,6.04
2022-12-25T13:33:58.054Z,6.02
2022-12-25T13:36:27.289Z,6.01
2022-12-25T13:38:56.475Z,5.99
2022-12-25T13:41:45.971Z,5.97
2022-12-25T13:44:26.360Z,5.95
2022-12-25T13:46:52.996Z,5.93
2022-12-25T13:49:22.923Z,5.92
2022-12-25T13:51:51.223Z,5.90
2022-12-25T13:54:18.994Z,5.87
2022-12-25T13:56:51.244Z,5.85
2022-12-25T13:59:21.397Z,5.84
2022-12-25T14:01:50.238Z,5.82
2022-12-25T14:04:23.193Z,5.81
2022-12-25T14:06:50.992Z,5.80
2022-12-25T14:09:19.671Z,5.77
2022-12-25T14:11:50.988Z,5.74
2022-12-25T14:14:25.656Z,5.73
2022-12-25T14:16:57.079Z,5.70
2022-12-25T14:19:36.987Z,5.68
2022-12-25T14:22:19.095Z,5.67
2022-12-25T14:24:47.516Z,5.64
2022-12-25T14:27:28.004Z,5.63
2022-12-25T14:29:57.458Z,5.61
2022-12-25T14:32:37.266Z,5.61
2022-12-25T14:35:04.640Z,5.60
2022-12-25T14:37:34.020Z,5.57
2022-12-25T14:40:25.440Z,5.57
2022-12-25T14:43:01.304Z,5.56
2022-12-25T14:45:34.327Z,5.55
2022-12-25T14:48:25.394Z,5.55
2022-12-25T14:51:05.221Z,5.52
2022-12-25T14:53:46.133Z,5.52
2022-12-25T14:56:19.561Z,5.50
2022-12-25T14:58:55.739Z,5.50
2022-12-25T15:01:33.468Z,5.48
2022-12-25T15:04:12.436Z,5.47
2022-12-25T15:06:51.554Z,5.47
2022-12-25T15:09:19.168Z,5.46
2022-12-25T15:11:51.465Z,5.45
2022-12-25T15:14:18.882Z,5.44
2022-12-25T15:16:54.643Z,5.44
2022-12-25T15:19:39.256Z,5.42
2022-12-25T15:22:14.885Z,5.41
2022-12-25T15:24:41.491Z,5.39
2022-12-25T15:27:17.064Z,5.39
2022-12-25T15:30:09.198Z,5.37
2022-12-25T15:32:30.917Z,5.38
2022-12-25T15:34:58.044Z,5.37
2022-12-25T15:37:24.655Z,5.37
2022-12-25T15:39:51.469Z,5.37
2022-12-25T15:42:21.711Z,5.36
2022-12-25T15:44:51.641Z,5.36
2022-12-25T15:47:23.144Z,5.35
2022-12-25T15:49:53.196Z,5.36
2022-12-25T15:52:19.802Z,5.36
2022-12-25T15:54:48.162Z,5.36
2022-12-25T15:57:19.716Z,5.35
2022-12-25T15:59:46.545Z,5.36
2022-12-25T16:02:16.877Z,5.34
2022-12-25T16:04:43.922Z,5.33
2022-12-25T16:07:15.956Z,5.31
2022-12-25T16:09:43.244Z,5.30
2022-12-25T16:12:13.483Z,5.28
2022-12-25T16:14:40.046Z,5.25
2022-12-25T16:17:11.508Z,5.23
2022-12-25T16:19:40.588Z,5.22
2022-12-25T16:22:18.165Z,5.21
2022-12-25T16:24:44.784Z,5.18
2022-12-25T16:27:11.334Z,5.16
2022-12-25T16:29:37.829Z,5.14
2022-12-25T16:32:04.968Z,5.12
2022-12-25T16:34:31.476Z,5.09
2022-12-25T16:36:58.063Z,5.08
2022-12-25T16:39:24.697Z,5.06
2022-12-25T16:41:51.224Z,5.05
2022-12-25T16:44:20.094Z,5.05
2022-12-25T16:46:46.914Z,5.03
2022-12-25T16:49:13.620Z,5.04
2022-12-25T16:51:40.949Z,5.03
2022-12-25T16:54:08.656Z,5.02
2022-12-25T16:56:39.577Z,5.02
2022-12-25T16:59:06.497Z,5.02
2022-12-25T17:01:33.302Z,5.02
2022-12-25T17:04:03.370Z,5.02
2022-12-25T17:06:35.385Z,5.00
2022-12-25T17:09:04.771Z,5.01
2022-12-25T17:11:32.004Z,5.00
2022-12-25T17:14:02.505Z,5.00
2022-12-25T17:16:32.660Z,5.00
2022-12-25T17:19:04.164Z,5.00
2022-12-25T17:21:34.923Z,5.00
2022-12-25T17:24:04.248Z,4.99
2022-12-25T17:26:32.713Z,4.99
2022-12-25T17:29:01.599Z,4.98
2022-12-25T17:31:29.135Z,4.99
2022-12-25T17:33:56.365Z,4.98
2022-12-25T17:36:25.581Z,4.97
2022-12-25T17:38:52.225Z,4.98
2022-12-25T17:41:20.298Z,4.99
2022-12-25T17:43:50.307Z,5.00
2022-12-25T17:46:20.589Z,4.99
2022-12-25T17:48:47.398Z,5.00
2022-12-25T17:51:20.131Z,5.00
2022-12-25T17:53:49.507Z,4.99
2022-12-25T17:56:16.878Z,5.00
2022-12-25T17:58:43.791Z,4.99
2022-12-25T18:01:16.607Z,4.99
2022-12-25T18:03:44.584Z,4.99
2022-12-25T18:06:14.901Z,4.98
2022-12-25T18:08:43.652Z,4.99
2022-12-25T18:11:23.171Z,4.97
2022-12-25T18:13:52.228Z,4.99
2022-12-25T18:16:22.478Z,4.99
2022-12-25T18:18:52.332Z,4.99
2022-12-25T18:21:21.477Z,4.97
2022-12-25T18:23:48.378Z,4.98
2022-12-25T18:26:15.284Z,4.97
2022-12-25T18:28:43.691Z,4.97
2022-12-25T18:31:15.833Z,4.97
2022-12-25T18:33:44.422Z,4.99
2022-12-25T18:36:13.254Z,4.97
2022-12-25T18:38:39.873Z,4.97
2022-12-25T18:41:07.794Z,4.97
2022-12-25T18:43:52.288Z,4.97
2022-12-25T18:46:27.618Z,4.97
2022-12-25T18:48:56.281Z,4.96
2022-12-25T18:51:23.196Z,4.96
2022-12-25T18:53:52.940Z,4.97
2022-12-25T18:56:28.259Z,4.95
2022-12-25T18:58:54.740Z,4.95
2022-12-25T19:01:23.551Z,4.93
2022-12-25T19:03:51.152Z,4.93
2022-12-25T19:06:24.988Z,4.92
2022-12-25T19:08:52.282Z,4.92
2022-12-25T19:11:20.130Z,4.91
2022-12-25T19:13:47.721Z,4.91
2022-12-25T19:16:15.411Z,4.89
2022-12-25T19:18:43.308Z,4.89
2022-12-25T19:21:10.908Z,4.89
2022-12-25T19:23:38.585Z,4.88
2022-12-25T19:26:06.758Z,4.90
2022-12-25T19:28:34.943Z,4.91
2022-12-25T19:31:04.767Z,4.92
2022-12-25T19:33:32.341Z,4.92
2022-12-25T19:36:01.324Z,4.91
2022-12-25T19:38:28.734Z,4.91
2022-12-25T19:41:01.405Z,4.91
2022-12-25T19:43:33.479Z,4.90
2022-12-25T19:46:01.514Z,4.91
2022-12-25T19:48:30.493Z,4.90
2022-12-25T19:50:57.867Z,4.89
2022-12-25T19:53:24.894Z,4.89
2022-12-25T19:55:52.885Z,4.88
2022-12-25T19:58:21.877Z,4.88
2022-12-25T20:00:59.897Z,4.88
2022-12-25T20:03:27.162Z,4.89
2022-12-25T20:05:53.835Z,4.87
2022-12-25T20:08:20.581Z,4.87
2022-12-25T20:10:47.173Z,4.88
2022-12-25T20:13:13.836Z,4.87
2022-12-25T20:15:40.544Z,4.87
2022-12-25T20:18:07.056Z,4.88
2022-12-25T20:20:33.675Z,4.89
2022-12-25T20:23:00.403Z,4.89
2022-12-25T20:25:26.986Z,4.90
2022-12-25T20:27:56.177Z,4.91
2022-12-25T20:30:22.702Z,4.91
2022-12-25T20:32:50.752Z,4.93
2022-12-25T20:35:17.539Z,4.91
2022-12-25T20:37:44.357Z,4.92
2022-12-25T20:40:11.602Z,4.92
2022-12-25T20:42:38.518Z,4.91
2022-12-25T20:45:07.413Z,4.93
2022-12-25T20:47:35.037Z,4.93
2022-12-25T20:50:01.643Z,4.93
2022-12-25T20:52:28.211Z,4.95
2022-12-25T20:54:54.812Z,4.95
2022-12-25T20:57:21.612Z,4.96
2022-12-25T20:59:49.304Z,4.95
2022-12-25T21:02:34.408Z,4.96
2022-12-25T21:05:06.365Z,4.96
2022-12-25T21:07:33.917Z,4.94
2022-12-25T21:10:00.829Z,4.93
2022-12-25T21:12:27.460Z,4.93
2022-12-25T21:14:54.261Z,4.92
2022-12-25T21:17:21.618Z,4.91
2022-12-25T21:19:49.870Z,4.92
2022-12-25T21:22:16.341Z,4.92
2022-12-25T21:24:43.245Z,4.92
2022-12-25T21:27:10.547Z,4.92
2022-12-25T21:29:37.241Z,4.91
2022-12-25T21:32:22.352Z,4.92
2022-12-25T21:34:49.288Z,4.90
2022-12-25T21:37:15.820Z,4.89
2022-12-25T21:39:42.603Z,4.88
2022-12-25T21:42:10.866Z,4.87
2022-12-25T21:44:37.240Z,4.86
2022-12-25T21:47:04.227Z,4.85
2022-12-25T21:49:49.242Z,4.82
2022-12-25T21:52:16.302Z,4.82
2022-12-25T21:54:42.788Z,4.82
2022-12-25T21:57:09.405Z,4.81
2022-12-25T21:59:36.239Z,4.80
2022-12-25T22:02:11.005Z,4.82
2022-12-25T22:04:38.550Z,4.81
2022-12-25T22:07:17.297Z,4.82
2022-12-25T22:09:45.397Z,4.79
2022-12-25T22:12:34.281Z,4.81
2022-12-25T22:15:09.480Z,4.81
2022-12-25T22:17:56.864Z,4.80
2022-12-25T22:20:28.050Z,4.78
2022-12-25T22:22:54.743Z,4.78
2022-12-25T22:25:24.126Z,4.80
2022-12-25T22:27:51.403Z,4.79
2022-12-25T22:30:21.470Z,4.79
2022-12-25T22:32:48.498Z,4.79
2022-12-25T22:35:15.952Z,4.79
2022-12-25T22:37:43.153Z,4.79
2022-12-25T22:40:12.910Z,4.79
2022-12-25T22:42:40.513Z,4.79
2022-12-25T22:45:07.205Z,4.79
2022-12-25T22:47:33.913Z,4.77
2022-12-25T22:50:00.807Z,4.77
2022-12-25T22:52:27.367Z,4.76
2022-12-25T22:54:53.941Z,4.75
2022-12-25T22:57:20.443Z,4.74
2022-12-25T22:59:46.914Z,4.76
2022-12-25T23:02:13.513Z,4.76
2022-12-25T23:04:40.712Z,4.75
2022-12-25T23:07:07.180Z,4.76
2022-12-25T23:09:34.324Z,4.74
2022-12-25T23:12:00.760Z,4.73
2022-12-25T23:14:39.649Z,4.73
2022-12-25T23:17:30.218Z,4.72
2022-12-25T23:20:18.818Z,4.72
2022-12-25T23:23:05.190Z,4.72
2022-12-25T23:25:52.745Z,4.72
2022-12-25T23:28:40.945Z,4.73
2022-12-25T23:31:09.300Z,4.72
2022-12-25T23:33:35.802Z,4.74
2022-12-25T23:36:02.461Z,4.74
2022-12-25T23:38:28.932Z,4.73
2022-12-25T23:40:55.433Z,4.74
2022-12-25T23:43:22.164Z,4.75
2022-12-25T23:45:48.593Z,4.75
2022-12-25T23:48:15.060Z,4.76
2022-12-25T23:50:41.605Z,4.76
2022-12-25T23:53:08.056Z,4.76
2022-12-25T23:55:34.621Z,4.76
2022-12-25T23:58:01.188Z,4.74
